Terminal Aerodrome Forecast
Issued by NWS Bismarck, ND

Home | Current Version | Previous Version | Text Only | Print | Product List | Glossary Off
Versions: 1 2 3 4 5 6 7 8 9 10 11 12 13 14 15 16 17 18

608
FTUS43 KBIS 171128
TAFBIS
TAF
KBIS 171128Z 1712/1812 31006KT P6SM OVC110
     FM180000 01004KT P6SM BKN200
     FM180800 VRB03KT P6SM SCT080
     FM181100 32007KT P6SM SCT070=

USA.gov is the U.S. government's official web portal to all federal, state and local government web resources and services.